Wekiva Springs, Florida
Current Conditions -  °F | °C
As of 11:53 PM on Monday 22 Dec 2014 (Local Time) from KORL Reporting Station
Few Clouds Few Clouds  
Wind Chill: 68°   Ceiling: Unl
Heat Index: 68°   Visibility: 8mi
Dew Point: 67°   Wind: 5mph
Humidity: 96%   Direction: 190°S
Pressure: 29.95"   Gusts: NA
Location:  28.7°N, 81.42°W
Report Text: KORL 230453Z 19004KT 8SM FEW090 20/19 A2995 RMK AO2 SLP146 T02000194 402560183
Loading
Personal Weather Stations






























Interactive Weather Map New forecast layout! Learn more

10-Day Weather Forecast

Advertisements
Track Severe Weather on mobile